Time;durP1;ratioP1;P1;durP2;ratioP2;P2;SDS_P1;SDS_P2;PMS_P1;PMS_P2;Temp;Humidity;BMP_temperature;BMP_pressure;BME280_temperature;BME280_humidity;BME280_pressure;Samples;Min_cycle;Max_cycle;Signal;HPM_P1;HPM_P2
2021/09/18 00:01:18;;;;;;;1999.90;999.90;;;;;;;18.74;95.76;95278.47;5088543;28;20239;-75
2021/09/18 00:03:46;;;;;;;1999.90;999.90;;;;;;;18.87;94.96;95277.22;5091021;28;20283;-74
2021/09/18 00:06:13;;;;;;;1999.90;999.90;;;;;;;19.01;93.63;95289.84;5090733;28;20203;-75
2021/09/18 00:08:40;;;;;;;1999.90;999.90;;;;;;;19.03;93.67;95287.63;5090823;28;20210;-75
2021/09/18 00:11:08;;;;;;;1999.90;999.90;;;;;;;19.08;93.57;95293.34;5090546;28;20199;-75
2021/09/18 00:13:35;;;;;;;1999.90;999.90;;;;;;;18.95;95.87;95289.38;5090662;28;20199;-75
2021/09/18 00:16:04;;;;;;;1999.90;999.90;;;;;;;18.82;97.62;95286.16;5090279;28;20251;-75
2021/09/18 00:18:31;;;;;;;1999.90;999.90;;;;;;;18.78;98.03;95282.69;5090373;28;20737;-75
2021/09/18 00:21:02;;;;;;;1999.90;999.90;;;;;;;18.82;97.67;95283.53;5090357;28;20295;-75
2021/09/18 00:23:29;;;;;;;1999.90;999.90;;;;;;;18.86;97.05;95279.09;5090191;28;20230;-75
2021/09/18 00:25:57;;;;;;;1999.90;999.90;;;;;;;18.87;97.06;95275.34;5090412;28;20679;-75
2021/09/18 00:28:24;;;;;;;1999.90;999.90;;;;;;;18.87;97.19;95277.97;5092850;28;20235;-75
2021/09/18 00:30:51;;;;;;;1999.90;999.90;;;;;;;18.89;97.31;95273.09;5094613;28;20203;-75
2021/09/18 00:33:20;;;;;;;1999.90;999.90;;;;;;;18.93;96.33;95273.91;5094536;28;20195;-75
2021/09/18 00:35:47;;;;;;;1999.90;999.90;;;;;;;19.04;95.04;95289.13;5094141;28;20306;-75
2021/09/18 00:38:14;;;;;;;1999.90;999.90;;;;;;;18.98;94.87;95290.56;5094669;28;20202;-75
2021/09/18 00:40:42;;;;;;;1999.90;999.90;;;;;;;19.06;94.16;95284.28;5094787;28;20204;-73
2021/09/18 00:43:11;;;;;;;1999.90;999.90;;;;;;;19.16;92.79;95281.06;5094497;28;20702;-74
2021/09/18 00:45:38;;;;;;;1999.90;999.90;;;;;;;19.10;92.65;95283.22;5095121;28;20290;-74
2021/09/18 00:48:05;;;;;;;1999.90;999.90;;;;;;;19.10;93.13;95285.09;5094442;28;20323;-75
2021/09/18 00:50:34;;;;;;;1999.90;999.90;;;;;;;19.08;93.76;95284.72;5094501;28;20223;-75
2021/09/18 00:53:01;;;;;;;1999.90;999.90;;;;;;;19.02;94.41;95284.25;5094326;28;20274;-76
2021/09/18 00:55:30;;;;;;;1999.90;999.90;;;;;;;19.09;95.36;95286.97;5094345;28;20202;-74
2021/09/18 00:57:57;;;;;;;1999.90;999.90;;;;;;;19.15;96.70;95297.97;5091564;28;20627;-75
2021/09/18 01:00:25;;;;;;;1999.90;999.90;;;;;;;19.10;98.30;95303.53;5073966;28;20681;-75
2021/09/18 01:02:52;;;;;;;1999.90;999.90;;;;;;;18.98;98.53;95303.72;5073931;28;20284;-75
2021/09/18 01:05:20;;;;;;;1999.90;999.90;;;;;;;18.91;98.12;95310.41;5073559;28;20793;-75
2021/09/18 01:07:49;;;;;;;1999.90;999.90;;;;;;;18.78;100.00;95306.38;5073834;28;20188;-73
2021/09/18 01:10:16;;;;;;;1999.90;999.90;;;;;;;18.64;100.00;95313.28;5073535;28;20236;-73
2021/09/18 01:13:04;;;;;;;1999.90;999.90;;;;;;;18.56;100.00;95325.56;5073693;28;20197;-73
2021/09/18 01:15:33;;;;;;;1999.90;999.90;;;;;;;18.56;100.00;95316.91;5079621;28;20210;-74
2021/09/18 01:18:00;;;;;;;1999.90;999.90;;;;;;;18.71;100.00;95316.81;5094062;28;20275;-74
2021/09/18 01:20:28;;;;;;;1999.90;999.90;;;;;;;18.60;100.00;95331.63;5094067;28;20199;-76
2021/09/18 01:22:59;;;;;;;1999.90;999.90;;;;;;;18.70;100.00;95322.41;5094160;28;20204;-75
2021/09/18 01:25:30;;;;;;;1999.90;999.90;;;;;;;18.75;100.00;95319.50;5093698;28;20238;-75
2021/09/18 01:27:57;;;;;;;1999.90;999.90;;;;;;;18.73;100.00;95311.19;5095527;28;20183;-76
2021/09/18 01:30:27;;;;;;;1999.90;999.90;;;;;;;18.69;100.00;95311.13;5097325;28;20192;-74
2021/09/18 01:32:54;;;;;;;1999.90;999.90;;;;;;;18.73;100.00;95296.13;5093612;28;20291;-75
2021/09/18 01:35:22;;;;;;;1999.90;999.90;;;;;;;18.70;100.00;95302.13;5093110;28;20203;-75
2021/09/18 01:37:49;;;;;;;1999.90;999.90;;;;;;;18.67;100.00;95308.09;5093174;28;20223;-74
2021/09/18 01:40:21;;;;;;;1999.90;999.90;;;;;;;18.73;100.00;95311.19;5092402;28;20548;-75
2021/09/18 01:42:51;;;;;;;1999.90;999.90;;;;;;;18.71;100.00;95329.97;5092727;28;20238;-75
2021/09/18 01:45:18;;;;;;;1999.90;999.90;;;;;;;18.73;100.00;95321.72;5093463;28;20256;-76
2021/09/18 01:47:47;;;;;;;1999.90;999.90;;;;;;;18.77;100.00;95304.13;5079920;28;20720;-77
2021/09/18 01:50:26;;;;;;;1999.90;999.90;;;;;;;18.79;100.00;95297.38;5073656;28;20653;-77
2021/09/18 01:52:55;;;;;;;1999.90;999.90;;;;;;;18.72;100.00;95299.16;5073598;28;20193;-77
2021/09/18 01:55:22;;;;;;;1999.90;999.90;;;;;;;18.72;100.00;95299.91;5072128;28;20203;-76
2021/09/18 01:57:53;;;;;;;1999.90;999.90;;;;;;;18.75;100.00;95301.06;5072299;28;20311;-74
2021/09/18 02:00:21;;;;;;;1999.90;999.90;;;;;;;18.78;100.00;95305.66;5072580;28;20211;-72
2021/09/18 02:02:49;;;;;;;1999.90;999.90;;;;;;;18.82;100.00;95301.19;5098069;28;20199;-76
2021/09/18 02:05:19;;;;;;;1999.90;999.90;;;;;;;18.78;100.00;95293.22;5089140;28;20212;-75
2021/09/18 02:07:46;;;;;;;1999.90;999.90;;;;;;;18.78;100.00;95290.59;5090862;28;20562;-74
2021/09/18 02:10:15;;;;;;;1999.90;999.90;;;;;;;18.71;100.00;95289.72;5087269;28;20286;-75
2021/09/18 02:12:43;;;;;;;1999.90;999.90;;;;;;;18.70;100.00;95290.81;5080031;28;20228;-75
2021/09/18 02:15:13;;;;;;;1999.90;999.90;;;;;;;18.66;100.00;95295.25;5086750;28;20228;-75
2021/09/18 02:17:41;;;;;;;1999.90;999.90;;;;;;;18.53;100.00;95291.97;5107284;28;20665;-75
2021/09/18 02:20:11;;;;;;;1999.90;999.90;;;;;;;18.30;100.00;95278.03;5103078;28;20308;-75
2021/09/18 02:22:38;;;;;;;1999.90;999.90;;;;;;;18.20;100.00;95275.94;5089745;28;20207;-74
2021/09/18 02:25:07;;;;;;;1999.90;999.90;;;;;;;18.19;100.00;95279.69;5088790;28;20234;-74
2021/09/18 02:27:35;;;;;;;1999.90;999.90;;;;;;;18.23;100.00;95278.66;5083759;28;20692;-76
2021/09/18 02:30:04;;;;;;;1999.90;999.90;;;;;;;18.28;100.00;95269.75;5086934;28;20206;-76
2021/09/18 02:32:34;;;;;;;1999.90;999.90;;;;;;;18.18;100.00;95265.03;5099428;28;20286;-75
2021/09/18 02:35:03;;;;;;;1999.90;999.90;;;;;;;18.10;100.00;95265.97;5086503;28;20631;-74
2021/09/18 02:37:30;;;;;;;1999.90;999.90;;;;;;;18.12;100.00;95258.53;5092090;28;20306;-74
2021/09/18 02:39:57;;;;;;;1999.90;999.90;;;;;;;18.05;100.00;95261.75;5091607;28;20202;-74
2021/09/18 02:42:25;;;;;;;1999.90;999.90;;;;;;;18.02;100.00;95257.97;5091772;28;20200;-75
2021/09/18 02:44:53;;;;;;;1999.90;999.90;;;;;;;17.97;100.00;95260.88;5106144;28;20195;-75
2021/09/18 02:47:20;;;;;;;1999.90;999.90;;;;;;;17.94;100.00;95266.81;5082807;28;20244;-75
2021/09/18 02:49:49;;;;;;;1999.90;999.90;;;;;;;17.82;100.00;95268.81;5087760;28;20199;-74
2021/09/18 02:52:16;;;;;;;1999.90;999.90;;;;;;;17.37;100.00;95269.31;5104242;28;20282;-75
2021/09/18 02:54:43;;;;;;;1999.90;999.90;;;;;;;17.39;100.00;95259.22;5091733;28;20203;-77
2021/09/18 02:57:10;;;;;;;1999.90;999.90;;;;;;;17.45;100.00;95249.97;5085996;28;20251;-74
2021/09/18 02:59:38;;;;;;;1999.90;999.90;;;;;;;17.46;100.00;95248.88;5071257;28;20583;-77
2021/09/18 03:02:05;;;;;;;1999.90;999.90;;;;;;;17.49;100.00;95243.69;5084874;28;20193;-76
2021/09/18 03:04:32;;;;;;;1999.90;999.90;;;;;;;17.47;100.00;95242.50;5081505;28;20200;-77
2021/09/18 03:07:01;;;;;;;1999.90;999.90;;;;;;;17.45;100.00;95247.34;5088754;28;20275;-75
2021/09/18 03:09:28;;;;;;;1999.90;999.90;;;;;;;17.27;100.00;95257.47;5080022;28;20196;-75
2021/09/18 03:11:56;;;;;;;1999.90;999.90;;;;;;;17.33;100.00;95255.34;5105427;28;20278;-76
2021/09/18 03:14:23;;;;;;;1999.90;999.90;;;;;;;17.42;100.00;95251.44;5083366;28;20588;-73
2021/09/18 03:16:50;;;;;;;1999.90;999.90;;;;;;;17.31;100.00;95245.16;5070388;28;20231;-74
2021/09/18 03:19:17;;;;;;;1999.90;999.90;;;;;;;16.92;100.00;95243.50;5081644;28;20200;-75
2021/09/18 03:21:45;;;;;;;1999.90;999.90;;;;;;;16.92;100.00;95238.25;5084433;28;20208;-75
2021/09/18 03:24:14;;;;;;;1999.90;999.90;;;;;;;16.99;100.00;95233.94;5073605;28;20206;-76
2021/09/18 03:26:43;;;;;;;1999.90;999.90;;;;;;;17.12;100.00;95232.75;5080988;28;20681;-76
2021/09/18 03:29:10;;;;;;;1999.90;999.90;;;;;;;17.11;100.00;95236.47;5082804;28;20561;-75
2021/09/18 03:31:37;;;;;;;1999.90;999.90;;;;;;;17.16;100.00;95238.84;5104349;28;20282;-77
2021/09/18 03:34:05;;;;;;;1999.90;999.90;;;;;;;17.19;100.00;95238.16;5087798;28;20314;-77
2021/09/18 03:36:32;;;;;;;1999.90;999.90;;;;;;;17.15;100.00;95232.06;5094924;28;20207;-77
2021/09/18 03:38:59;;;;;;;1999.90;999.90;;;;;;;17.23;100.00;95237.47;5077001;28;20193;-77
2021/09/18 03:41:28;;;;;;;1999.90;999.90;;;;;;;17.28;100.00;95240.59;5085405;28;20206;-76
2021/09/18 03:43:55;;;;;;;1999.90;999.90;;;;;;;17.14;100.00;95235.78;5083452;28;20284;-75
2021/09/18 03:46:22;;;;;;;1999.90;999.90;;;;;;;17.09;100.00;95236.03;5074220;28;20719;-75
2021/09/18 03:48:50;;;;;;;1999.90;999.90;;;;;;;17.10;100.00;95236.81;5080456;28;20348;-75
2021/09/18 03:51:17;;;;;;;1999.90;999.90;;;;;;;17.20;100.00;95229.16;5089814;28;20279;-75
2021/09/18 03:53:44;;;;;;;1999.90;999.90;;;;;;;17.16;100.00;95233.59;5085784;28;20329;-75
2021/09/18 03:56:11;;;;;;;1999.90;999.90;;;;;;;17.18;100.00;95252.38;5085480;28;20665;-72
2021/09/18 03:58:40;;;;;;;1999.90;999.90;;;;;;;17.23;100.00;95251.38;5085716;28;20314;-76
2021/09/18 04:01:07;;;;;;;1999.90;999.90;;;;;;;17.16;100.00;95248.56;5082004;28;20275;-74
2021/09/18 04:03:35;;;;;;;1999.90;999.90;;;;;;;17.21;100.00;95245.69;5084496;28;20199;-74
2021/09/18 04:06:02;;;;;;;1999.90;999.90;;;;;;;17.31;100.00;95252.28;5090280;28;20286;-73
2021/09/18 04:08:29;;;;;;;1999.90;999.90;;;;;;;17.39;100.00;95253.97;5087582;28;20201;-74
2021/09/18 04:10:56;;;;;;;1999.90;999.90;;;;;;;17.51;100.00;95238.09;5082895;28;20204;-77
2021/09/18 04:13:24;;;;;;;1999.90;999.90;;;;;;;17.46;100.00;95233.88;5078623;28;20204;-75
2021/09/18 04:15:52;;;;;;;1999.90;999.90;;;;;;;17.45;100.00;95239.47;5075346;28;20210;-75
2021/09/18 04:18:20;;;;;;;1999.90;999.90;;;;;;;17.43;100.00;95233.81;5102579;28;20219;-75
2021/09/18 04:20:47;;;;;;;1999.90;999.90;;;;;;;17.53;100.00;95238.53;5090803;28;20204;-74
2021/09/18 04:23:14;;;;;;;1999.90;999.90;;;;;;;17.59;100.00;95253.69;5078403;28;20687;-74
2021/09/18 04:25:41;;;;;;;1999.90;999.90;;;;;;;17.68;100.00;95253.53;5078323;28;20286;-70
2021/09/18 04:28:08;;;;;;;1999.90;999.90;;;;;;;17.74;100.00;95252.13;5076516;28;20555;-73
2021/09/18 04:30:36;;;;;;;1999.90;999.90;;;;;;;17.94;100.00;95253.66;5070077;28;20192;-73
2021/09/18 04:33:05;;;;;;;1999.90;999.90;;;;;;;17.85;100.00;95273.38;5071569;28;20299;-70
2021/09/18 04:35:32;;;;;;;1999.90;999.90;;;;;;;17.63;100.00;95283.44;5072002;28;20598;-74
2021/09/18 04:37:59;;;;;;;1999.90;999.90;;;;;;;17.53;100.00;95296.34;5081254;28;20309;-71
2021/09/18 04:40:26;;;;;;;1999.90;999.90;;;;;;;17.43;100.00;95328.38;5090172;28;20274;-74
2021/09/18 04:42:54;;;;;;;1999.90;999.90;;;;;;;17.37;100.00;95348.13;5089554;28;20210;-72
2021/09/18 04:45:21;;;;;;;1999.90;999.90;;;;;;;17.26;100.00;95347.88;5089668;28;20200;-71
2021/09/18 04:47:48;;;;;;;1999.90;999.90;;;;;;;17.33;100.00;95342.78;5089111;28;20250;-72
2021/09/18 04:50:17;;;;;;;1999.90;999.90;;;;;;;17.38;100.00;95328.63;5089422;28;20199;-72
2021/09/18 04:52:44;;;;;;;1999.90;999.90;;;;;;;17.26;100.00;95284.81;5089263;28;20615;-72
2021/09/18 04:55:11;;;;;;;1999.90;999.90;;;;;;;17.09;100.00;95280.69;5089679;28;20191;-71
2021/09/18 04:57:38;;;;;;;1999.90;999.90;;;;;;;17.10;100.00;95261.19;5089694;28;20310;-71
2021/09/18 05:00:07;;;;;;;1999.90;999.90;;;;;;;17.08;100.00;95262.66;5089367;28;20663;-72
2021/09/18 05:02:35;;;;;;;1999.90;999.90;;;;;;;17.08;100.00;95262.66;5089385;28;20215;-72
2021/09/18 05:05:02;;;;;;;1999.90;999.90;;;;;;;17.13;100.00;95278.91;5089434;28;20192;-73
2021/09/18 05:07:30;;;;;;;1999.90;999.90;;;;;;;17.25;100.00;95288.56;5089775;28;20196;-72
2021/09/18 05:09:58;;;;;;;1999.90;999.90;;;;;;;17.36;100.00;95294.06;5089156;28;20214;-73
2021/09/18 05:12:25;;;;;;;1999.90;999.90;;;;;;;17.50;100.00;95305.66;5089496;28;20200;-73
2021/09/18 05:14:52;;;;;;;1999.90;999.90;;;;;;;17.56;100.00;95327.16;5090517;28;20282;-72
2021/09/18 05:17:20;;;;;;;1999.90;999.90;;;;;;;17.52;100.00;95328.97;5092777;28;20220;-70
2021/09/18 05:19:47;;;;;;;1999.90;999.90;;;;;;;17.58;100.00;95332.84;5092822;28;20195;-71
2021/09/18 05:22:14;;;;;;;1999.90;999.90;;;;;;;17.60;100.00;95333.28;5093097;28;20759;-71
2021/09/18 05:24:43;;;;;;;1999.90;999.90;;;;;;;17.60;100.00;95325.41;5093058;28;20196;-71
2021/09/18 05:27:10;;;;;;;1999.90;999.90;;;;;;;17.71;100.00;95313.28;5092856;28;20215;-71
2021/09/18 05:29:39;;;;;;;1999.90;999.90;;;;;;;17.83;100.00;95317.66;5092586;28;20192;-70
2021/09/18 05:32:07;;;;;;;1999.90;999.90;;;;;;;17.87;100.00;95326.38;5092617;28;20211;-71
2021/09/18 05:34:34;;;;;;;1999.90;999.90;;;;;;;17.86;100.00;95325.63;5092385;28;20200;-71
2021/09/18 05:37:01;;;;;;;1999.90;999.90;;;;;;;17.90;100.00;95329.09;5092172;28;20291;-72
2021/09/18 05:39:29;;;;;;;1999.90;999.90;;;;;;;17.92;100.00;95321.63;5092812;28;20196;-71
2021/09/18 05:41:58;;;;;;;1999.90;999.90;;;;;;;18.06;100.00;95324.53;5092559;28;20206;-72
2021/09/18 05:44:25;;;;;;;1999.90;999.90;;;;;;;18.16;100.00;95314.59;5092326;28;20239;-72
2021/09/18 05:46:52;;;;;;;1999.90;999.90;;;;;;;18.27;100.00;95323.47;5092042;28;20203;-71
2021/09/18 05:49:19;;;;;;;1999.90;999.90;;;;;;;18.30;100.00;95320.88;5092264;28;20579;-71
2021/09/18 05:51:47;;;;;;;1999.90;999.90;;;;;;;18.25;100.00;95317.75;5092663;28;20195;-72
2021/09/18 05:54:14;;;;;;;1999.90;999.90;;;;;;;18.27;100.00;95315.56;5092254;28;20296;-71
2021/09/18 05:56:41;;;;;;;1999.90;999.90;;;;;;;18.12;100.00;95319.00;5092224;28;20198;-70
2021/09/18 05:59:10;;;;;;;1999.90;999.90;;;;;;;18.17;100.00;95316.09;5091689;28;20220;-72
2021/09/18 06:01:37;;;;;;;1999.90;999.90;;;;;;;18.11;100.00;95317.47;5092071;28;20204;-72
2021/09/18 06:04:05;;;;;;;1999.90;999.90;;;;;;;18.19;100.00;95319.91;5091904;28;20195;-71
2021/09/18 06:06:32;;;;;;;1999.90;999.90;;;;;;;18.40;100.00;95322.19;5092072;28;20199;-72
2021/09/18 06:08:59;;;;;;;1999.90;999.90;;;;;;;18.62;100.00;95318.91;5091614;28;20202;-71
2021/09/18 06:11:26;;;;;;;1999.90;999.90;;;;;;;18.73;100.00;95311.94;5091773;28;20202;-72
2021/09/18 06:13:53;;;;;;;1999.90;999.90;;;;;;;18.80;100.00;95312.06;5092799;28;20246;-71
2021/09/18 06:16:23;;;;;;;1999.90;999.90;;;;;;;18.80;100.00;95313.94;5093735;28;20200;-73
2021/09/18 06:18:51;;;;;;;1999.90;999.90;;;;;;;18.86;100.00;95320.44;5090034;28;20222;-70
2021/09/18 06:21:18;;;;;;;1999.90;999.90;;;;;;;18.89;100.00;95317.09;5093381;28;20553;-73
2021/09/18 06:23:46;;;;;;;1999.90;999.90;;;;;;;18.97;100.00;95323.28;5092646;28;20203;-72
2021/09/18 06:26:16;;;;;;;1999.90;999.90;;;;;;;18.98;100.00;95319.53;5090928;28;20202;-72
2021/09/18 06:28:43;;;;;;;1999.90;999.90;;;;;;;19.14;100.00;95320.94;5091559;28;20676;-72
2021/09/18 06:31:11;;;;;;;1999.90;999.90;;;;;;;19.51;100.00;95326.44;5091253;28;20191;-72
2021/09/18 06:33:40;;;;;;;1999.90;999.90;;;;;;;19.80;100.00;95324.22;5091926;28;20238;-71
2021/09/18 06:36:07;;;;;;;1999.90;999.90;;;;;;;19.87;100.00;95311.91;5091726;28;20204;-71
2021/09/18 06:38:34;;;;;;;1999.90;999.90;;;;;;;20.08;100.00;95321.94;5091269;28;20223;-71
2021/09/18 06:41:01;;;;;;;1999.90;999.90;;;;;;;19.97;100.00;95315.78;5091584;28;20195;-71
2021/09/18 06:43:29;;;;;;;1999.90;999.90;;;;;;;20.02;100.00;95310.19;5091522;28;20203;-71
2021/09/18 06:45:57;;;;;;;1999.90;999.90;;;;;;;20.04;100.00;95318.50;5091271;28;20278;-73
2021/09/18 06:48:24;;;;;;;1999.90;999.90;;;;;;;20.07;100.00;95315.16;5091083;28;20238;-71
2021/09/18 06:50:52;;;;;;;1999.90;999.90;;;;;;;20.10;100.00;95317.09;5091499;28;20701;-72
2021/09/18 06:53:20;;;;;;;1999.90;999.90;;;;;;;20.31;100.00;95312.09;5091943;28;20567;-72
2021/09/18 06:55:47;;;;;;;1999.90;999.90;;;;;;;20.35;100.00;95320.06;5090990;28;20234;-72
2021/09/18 06:58:14;;;;;;;1999.90;999.90;;;;;;;20.53;100.00;95323.66;5090630;28;20242;-72
2021/09/18 07:00:41;;;;;;;1999.90;999.90;;;;;;;20.68;100.00;95329.84;5090761;28;20663;-72
2021/09/18 07:03:08;;;;;;;1999.90;999.90;;;;;;;20.90;100.00;95326.31;5091217;28;20203;-72
2021/09/18 07:05:36;;;;;;;1999.90;999.90;;;;;;;20.65;99.65;95333.22;5091058;28;20682;-71
2021/09/18 07:08:05;;;;;;;1999.90;999.90;;;;;;;21.00;99.55;95338.84;5091104;28;20196;-72
2021/09/18 07:10:33;;;;;;;1999.90;999.90;;;;;;;21.20;99.18;95336.81;5090701;28;20212;-70
2021/09/18 07:13:00;;;;;;;1999.90;999.90;;;;;;;21.33;96.83;95357.31;5090841;28;20195;-70
2021/09/18 07:15:27;;;;;;;1999.90;999.90;;;;;;;21.20;95.71;95361.34;5090919;28;20639;-71
2021/09/18 07:17:54;;;;;;;1999.90;999.90;;;;;;;21.41;97.07;95355.50;5090744;28;20227;-72
2021/09/18 07:20:22;;;;;;;1999.90;999.90;;;;;;;21.51;96.48;95359.34;5090815;28;20660;-71
2021/09/18 07:22:49;;;;;;;1999.90;999.90;;;;;;;21.32;95.49;95358.44;5090777;28;20203;-70
2021/09/18 07:25:17;;;;;;;1999.90;999.90;;;;;;;21.20;95.90;95356.06;5092247;28;20621;-71
2021/09/18 07:27:44;;;;;;;1999.90;999.90;;;;;;;21.25;97.77;95353.09;5091709;28;20200;-72
2021/09/18 07:30:12;;;;;;;1999.90;999.90;;;;;;;21.29;96.45;95353.88;5091097;28;20249;-70
2021/09/18 07:32:40;;;;;;;1999.90;999.90;;;;;;;21.25;95.66;95353.09;5091322;28;20576;-72
2021/09/18 07:35:07;;;;;;;1999.90;999.90;;;;;;;21.48;96.63;95352.91;5090610;28;20204;-71
2021/09/18 07:37:35;;;;;;;1999.90;999.90;;;;;;;21.37;91.31;95352.81;5089101;28;20199;-71
2021/09/18 07:40:04;;;;;;;1999.90;999.90;;;;;;;21.37;92.60;95362.66;5090140;28;20577;-71
2021/09/18 07:42:32;;;;;;;1999.90;999.90;;;;;;;20.89;93.26;95364.41;5090417;28;20656;-72
2021/09/18 07:44:59;;;;;;;1999.90;999.90;;;;;;;20.94;95.70;95364.09;5090453;28;20203;-72
2021/09/18 07:47:26;;;;;;;1999.90;999.90;;;;;;;20.95;93.00;95369.03;5090009;28;20223;-72
2021/09/18 07:49:54;;;;;;;1999.90;999.90;;;;;;;20.67;94.14;95358.16;5090128;28;20192;-71
2021/09/18 07:52:21;;;;;;;1999.90;999.90;;;;;;;20.59;94.46;95352.03;5090451;28;20883;-72
2021/09/18 07:54:48;;;;;;;1999.90;999.90;;;;;;;20.61;95.59;95349.03;5089955;28;20722;-71
2021/09/18 07:57:15;;;;;;;1999.90;999.90;;;;;;;20.49;94.21;95357.94;5089900;28;20208;-71
2021/09/18 07:59:44;;;;;;;1999.90;999.90;;;;;;;20.32;94.56;95349.81;5089943;28;20230;-70
2021/09/18 08:02:11;;;;;;;1999.90;999.90;;;;;;;20.39;95.66;95363.84;5089861;28;20192;-72
2021/09/18 08:04:38;;;;;;;1999.90;999.90;;;;;;;20.33;96.90;95357.34;5090123;28;20199;-71
2021/09/18 08:07:05;;;;;;;1999.90;999.90;;;;;;;20.53;96.92;95350.81;5089795;28;20238;-71
2021/09/18 08:09:32;;;;;;;1999.90;999.90;;;;;;;20.83;97.11;95356.03;5090029;28;20191;-71
2021/09/18 08:11:59;;;;;;;1999.90;999.90;;;;;;;21.24;95.00;95359.50;5090247;28;20219;-72
2021/09/18 08:14:26;;;;;;;1999.90;999.90;;;;;;;21.46;92.33;95365.75;5089534;28;20198;-71
2021/09/18 08:16:55;;;;;;;1999.90;999.90;;;;;;;21.05;94.31;95363.06;5089921;28;20200;-72
2021/09/18 08:19:22;;;;;;;1999.90;999.90;;;;;;;20.78;94.84;95360.88;5086053;28;20223;-72
2021/09/18 08:21:50;;;;;;;1999.90;999.90;;;;;;;20.85;95.79;95367.03;5089602;28;20191;-72
2021/09/18 08:24:18;;;;;;;1999.90;999.90;;;;;;;21.31;95.55;95364.84;5090148;28;20664;-72
2021/09/18 08:26:46;;;;;;;1999.90;999.90;;;;;;;21.60;93.11;95359.78;5089909;28;20199;-72
2021/09/18 08:29:13;;;;;;;1999.90;999.90;;;;;;;21.84;90.68;95369.78;5089719;28;20203;-71
2021/09/18 08:31:40;;;;;;;1999.90;999.90;;;;;;;21.85;90.02;95382.66;5089771;28;20228;-71
2021/09/18 08:34:10;;;;;;;1999.90;999.90;;;;;;;21.93;88.07;95396.69;5089287;28;20286;-73
2021/09/18 08:36:37;;;;;;;1999.90;999.90;;;;;;;22.02;87.71;95407.75;5089892;28;20218;-72
2021/09/18 08:39:05;;;;;;;1999.90;999.90;;;;;;;21.92;87.84;95397.06;5089512;28;20225;-70
2021/09/18 08:41:32;;;;;;;1999.90;999.90;;;;;;;21.86;90.05;95391.34;5089891;28;20202;-71
2021/09/18 08:43:59;;;;;;;1999.90;999.90;;;;;;;21.63;88.30;95401.38;5089867;28;20287;-71
2021/09/18 08:46:27;;;;;;;1999.90;999.90;;;;;;;21.60;88.97;95387.00;5089581;28;20196;-71
2021/09/18 08:48:55;;;;;;;1999.90;999.90;;;;;;;20.95;90.24;95389.38;5090886;28;20719;-72
2021/09/18 08:51:25;;;;;;;1999.90;999.90;;;;;;;20.82;93.11;95382.84;5093565;28;20192;-70
2021/09/18 08:53:52;;;;;;;1999.90;999.90;;;;;;;20.86;94.34;95386.28;5093220;28;20187;-71
2021/09/18 08:56:20;;;;;;;1999.90;999.90;;;;;;;20.88;94.27;95379.50;5093527;28;20751;-72
2021/09/18 08:58:49;;;;;;;1999.90;999.90;;;;;;;20.69;94.45;95386.81;5093060;28;20266;-71
2021/09/18 09:01:18;;;;;;;1999.90;999.90;;;;;;;20.48;94.68;95390.72;5093144;28;20195;-72
2021/09/18 09:03:55;;;;;;;1999.90;999.90;;;;;;;20.13;99.21;95390.25;5093119;28;20210;-72
2021/09/18 09:06:25;;;;;;;1999.90;999.90;;;;;;;20.08;100.00;95391.31;5093189;28;20186;-73
2021/09/18 09:08:56;;;;;;;1999.90;999.90;;;;;;;19.96;100.00;95393.41;5093182;28;20188;-73
2021/09/18 09:11:27;;;;;;;1999.90;999.90;;;;;;;19.82;100.00;95403.75;5093144;28;20198;-72
2021/09/18 09:13:57;;;;;;;1999.90;999.90;;;;;;;19.71;100.00;95401.72;5092645;28;20195;-75
2021/09/18 09:16:25;;;;;;;1999.90;999.90;;;;;;;19.46;100.00;95389.25;5093044;28;20196;-73
2021/09/18 09:18:52;;;;;;;1999.90;999.90;;;;;;;19.51;100.00;95386.31;5092887;28;20310;-73
2021/09/18 09:21:22;;;;;;;1999.90;999.90;;;;;;;19.64;100.00;95369.94;5092731;28;20188;-74
2021/09/18 09:27:05;;;;;;;1999.90;999.90;;;;;;;19.61;100.00;95370.66;5128229;27;20553;-72
2021/09/18 09:29:43;;;;;;;1999.90;999.90;;;;;;;19.85;100.00;95366.09;5128290;27;20193;-70
2021/09/18 09:32:32;;;;;;;1999.90;999.90;;;;;;;19.96;100.00;95365.16;5128614;27;20357;-70
2021/09/18 09:35:01;;;;;;;1999.90;999.90;;;;;;;20.04;100.00;95376.56;5129183;27;20234;-72
2021/09/18 09:37:28;;;;;;;1999.90;999.90;;;;;;;19.90;100.00;95386.91;5128250;27;20222;-72
2021/09/18 09:39:58;;;;;;;1999.90;999.90;;;;;;;19.85;100.00;95387.19;5128333;27;20277;-72
2021/09/18 09:42:28;;;;;;;1999.90;999.90;;;;;;;20.03;100.00;95380.28;5128116;27;20670;-71
2021/09/18 09:44:56;;;;;;;1999.90;999.90;;;;;;;20.16;100.00;95379.00;5128430;27;20226;-71
2021/09/18 09:47:23;;;;;;;1999.90;999.90;;;;;;;20.28;100.00;95378.75;5127952;27;20194;-70
2021/09/18 09:49:52;;;;;;;1999.90;999.90;;;;;;;19.99;100.00;95374.97;5128050;27;20202;-72
2021/09/18 09:52:22;;;;;;;1999.90;999.90;;;;;;;20.03;100.00;95380.28;5127783;27;20190;-72
2021/09/18 09:54:49;;;;;;;1999.90;999.90;;;;;;;19.99;100.00;95380.25;5128043;27;20195;-71
2021/09/18 09:57:17;;;;;;;1999.90;999.90;;;;;;;20.02;100.00;95384.06;5127765;27;20195;-72
2021/09/18 09:59:45;;;;;;;1999.90;999.90;;;;;;;19.97;100.00;95392.28;5128180;27;20281;-71
2021/09/18 10:02:14;;;;;;;1999.90;999.90;;;;;;;19.96;100.00;95388.13;5128697;27;20323;-69
2021/09/18 10:04:42;;;;;;;1999.90;999.90;;;;;;;19.66;98.59;95402.00;5127815;27;20251;-70
2021/09/18 10:07:11;;;;;;;1999.90;999.90;;;;;;;19.20;99.34;95405.72;5127842;27;20372;-70
2021/09/18 10:09:38;;;;;;;1999.90;999.90;;;;;;;18.96;100.00;95421.81;5127500;27;20591;-70
2021/09/18 10:12:06;;;;;;;1999.90;999.90;;;;;;;18.72;100.00;95431.53;5127741;27;20213;-70
2021/09/18 10:14:35;;;;;;;1999.90;999.90;;;;;;;18.26;100.00;95443.72;5127604;27;20611;-71
2021/09/18 10:17:04;;;;;;;1999.90;999.90;;;;;;;17.87;100.00;95445.47;5127358;27;20203;-70
2021/09/18 10:25:01;;;;;;;1999.90;999.90;;;;;;;17.35;100.00;95465.91;5127027;28;20230;-72
2021/09/18 10:27:28;;;;;;;1999.90;999.90;;;;;;;17.28;100.00;95487.50;5127803;27;20201;-73
2021/09/18 10:29:56;;;;;;;1999.90;999.90;;;;;;;17.30;100.00;95482.66;5119026;27;20195;-74
2021/09/18 10:32:25;;;;;;;1999.90;999.90;;;;;;;17.09;100.00;95474.97;5109870;28;20196;-74
2021/09/18 10:35:10;;;;;;;1999.90;999.90;;;;;;;17.19;100.00;95450.09;5108288;28;20646;-74
2021/09/18 10:37:39;;;;;;;1999.90;999.90;;;;;;;17.08;100.00;95455.09;5101316;28;20191;-74
2021/09/18 10:40:10;;;;;;;1999.90;999.90;;;;;;;17.08;100.00;95455.09;5113368;28;20195;-73
2021/09/18 10:42:39;;;;;;;1999.90;999.90;;;;;;;16.82;100.00;95464.50;5113411;28;20215;-73
2021/09/18 10:45:09;;;;;;;1999.90;999.90;;;;;;;16.54;100.00;95472.28;5113238;28;20607;-72
2021/09/18 10:47:41;;;;;;;1999.90;999.90;;;;;;;16.41;100.00;95476.78;5113394;28;20788;-72
2021/09/18 10:50:39;;;;;;;1999.90;999.90;;;;;;;16.20;100.00;95481.38;5112887;28;20225;-71
2021/09/18 10:53:10;;;;;;;1999.90;999.90;;;;;;;16.03;100.00;95471.16;5113334;28;20191;-72
2021/09/18 10:55:55;;;;;;;1999.90;999.90;;;;;;;16.26;100.00;95485.31;5113066;28;20635;-73
2021/09/18 10:58:23;;;;;;;1999.90;999.90;;;;;;;16.37;100.00;95481.16;5112683;28;20190;-73
2021/09/18 11:00:54;;;;;;;1999.90;999.90;;;;;;;16.36;100.00;95462.03;5113036;28;20278;-73
2021/09/18 11:03:44;;;;;;;1999.90;999.90;;;;;;;16.46;100.00;95458.19;5113199;28;20563;-73